createdAt,value
2018-07-20T00:01:33.684Z,9.73
2018-07-20T00:04:02.280Z,15.43
2018-07-20T00:06:38.090Z,9.17
2018-07-20T00:09:08.529Z,9.80
2018-07-20T00:11:37.248Z,10.57
2018-07-20T00:14:05.965Z,10.93
2018-07-20T00:16:34.608Z,7.80
2018-07-20T00:19:03.233Z,15.10
2018-07-20T00:21:31.790Z,16.20
2018-07-20T00:24:00.385Z,13.63
2018-07-20T00:26:28.945Z,9.30
2018-07-20T00:28:57.496Z,9.00
2018-07-20T00:31:26.108Z,10.00
2018-07-20T00:33:54.668Z,11.43
2018-07-20T00:36:23.503Z,8.57
2018-07-20T00:38:52.139Z,11.93
2018-07-20T00:41:23.037Z,12.80
2018-07-20T00:43:51.581Z,10.57
2018-07-20T00:46:20.197Z,16.63
2018-07-20T00:48:48.780Z,13.20
2018-07-20T00:51:17.398Z,15.53
2018-07-20T00:53:46.080Z,10.40
2018-07-20T00:56:14.628Z,12.00
2018-07-20T00:58:43.215Z,12.10
2018-07-20T01:01:11.794Z,11.63
2018-07-20T01:03:40.621Z,11.60
2018-07-20T01:06:09.235Z,10.23
2018-07-20T01:08:37.831Z,11.00
2018-07-20T01:11:06.441Z,11.20
2018-07-20T01:13:35.079Z,11.20
2018-07-20T01:16:03.621Z,10.80
2018-07-20T01:18:32.184Z,12.40
2018-07-20T01:21:00.743Z,17.43
2018-07-20T01:23:29.742Z,15.50
2018-07-20T01:25:58.344Z,10.10
2018-07-20T01:28:26.988Z,9.27
2018-07-20T01:30:55.587Z,13.40
2018-07-20T01:33:24.181Z,13.97
2018-07-20T01:35:52.821Z,15.83
2018-07-20T01:38:21.738Z,12.80
2018-07-20T01:40:50.294Z,9.47
2018-07-20T01:43:18.873Z,9.30
2018-07-20T01:45:47.433Z,10.33
2018-07-20T01:48:16.028Z,14.10
2018-07-20T01:50:44.552Z,15.77
2018-07-20T01:53:13.387Z,9.53
2018-07-20T01:55:42.043Z,11.63
2018-07-20T01:58:10.602Z,13.97
2018-07-20T02:00:39.184Z,9.50
2018-07-20T02:03:07.980Z,17.70
2018-07-20T02:05:41.885Z,16.80
2018-07-20T02:08:11.428Z,15.03
2018-07-20T02:10:39.978Z,13.50
2018-07-20T02:13:08.648Z,10.77
2018-07-20T02:15:37.240Z,9.50
2018-07-20T02:18:05.921Z,17.50
2018-07-20T02:20:34.496Z,9.60
2018-07-20T02:23:03.216Z,12.23
2018-07-20T02:25:31.948Z,9.57
2018-07-20T02:28:00.512Z,11.87
2018-07-20T02:30:29.110Z,10.23
2018-07-20T02:32:57.683Z,10.50
2018-07-20T02:35:26.231Z,9.93
2018-07-20T02:37:54.826Z,14.73
2018-07-20T02:40:23.380Z,8.43
2018-07-20T02:42:51.903Z,10.40
2018-07-20T02:45:20.528Z,11.63
2018-07-20T02:47:49.221Z,16.43
2018-07-20T02:50:17.819Z,10.13
2018-07-20T02:52:46.371Z,13.10
2018-07-20T02:55:16.229Z,11.27
2018-07-20T02:57:44.974Z,12.13
2018-07-20T03:00:13.505Z,14.03
2018-07-20T03:02:42.202Z,12.07
2018-07-20T03:05:11.322Z,13.57
2018-07-20T03:07:39.931Z,13.33
2018-07-20T03:10:08.537Z,20.57
2018-07-20T03:12:37.133Z,41.77
2018-07-20T03:15:05.776Z,32.43
2018-07-20T03:17:34.336Z,31.93
2018-07-20T03:20:03.003Z,16.40
2018-07-20T03:22:31.640Z,17.30
2018-07-20T03:25:00.420Z,12.50
2018-07-20T03:27:29.016Z,9.90
2018-07-20T03:29:57.591Z,13.57
2018-07-20T03:32:26.185Z,32.60
2018-07-20T03:34:54.732Z,33.20
2018-07-20T03:37:23.523Z,16.37
2018-07-20T03:39:52.089Z,15.37
2018-07-20T03:42:20.679Z,12.20
2018-07-20T03:44:49.240Z,16.70
2018-07-20T03:47:17.773Z,10.17
2018-07-20T03:49:46.335Z,11.03
2018-07-20T03:52:14.927Z,34.57
2018-07-20T03:54:43.863Z,20.07
2018-07-20T03:57:13.000Z,17.40
2018-07-20T03:59:41.552Z,38.00
2018-07-20T04:02:11.273Z,37.77
2018-07-20T04:04:39.902Z,36.13
2018-07-20T04:07:09.498Z,27.83
2018-07-20T04:09:38.228Z,35.77
2018-07-20T04:12:06.854Z,21.67
2018-07-20T04:14:35.415Z,24.53
2018-07-20T04:17:04.045Z,25.40
2018-07-20T04:19:32.621Z,18.53
2018-07-20T04:22:01.163Z,41.80
2018-07-20T04:24:29.764Z,48.33
2018-07-20T04:26:58.295Z,42.43
2018-07-20T04:29:27.063Z,48.47
2018-07-20T04:31:55.708Z,35.90
2018-07-20T04:34:24.515Z,27.97
2018-07-20T04:36:53.283Z,21.20
2018-07-20T04:39:21.846Z,28.03
2018-07-20T04:41:50.427Z,12.87
2018-07-20T04:44:19.087Z,15.27
2018-07-20T04:46:47.611Z,11.60
2018-07-20T04:49:16.280Z,12.23
2018-07-20T04:51:44.912Z,16.90
2018-07-20T04:54:13.552Z,12.87
2018-07-20T04:56:42.142Z,16.73
2018-07-20T04:59:10.701Z,15.67
2018-07-20T05:01:39.247Z,15.13
2018-07-20T05:04:07.869Z,13.07
2018-07-20T05:06:36.412Z,15.93
2018-07-20T05:09:08.256Z,13.90
2018-07-20T05:11:37.107Z,13.80
2018-07-20T05:14:05.763Z,16.07
2018-07-20T05:16:34.387Z,16.83
2018-07-20T05:19:03.637Z,15.60
2018-07-20T05:21:32.208Z,15.97
2018-07-20T05:24:00.821Z,11.17
2018-07-20T05:26:29.352Z,11.03
2018-07-20T05:28:58.102Z,22.10
2018-07-20T05:31:26.784Z,19.47
2018-07-20T05:33:55.333Z,16.47
2018-07-20T05:36:24.134Z,16.50
2018-07-20T05:38:52.712Z,12.43
2018-07-20T05:41:21.336Z,9.67
2018-07-20T05:43:49.940Z,11.03
2018-07-20T05:46:18.748Z,10.40
2018-07-20T05:48:47.368Z,13.90
2018-07-20T05:51:16.687Z,21.67
2018-07-20T05:53:45.228Z,10.73
2018-07-20T05:56:13.769Z,10.60
2018-07-20T05:58:42.343Z,15.60
2018-07-20T06:01:10.909Z,12.30
2018-07-20T06:03:39.498Z,13.90
2018-07-20T06:06:08.851Z,20.20
2018-07-20T06:08:37.652Z,18.23
2018-07-20T06:11:06.755Z,15.60
2018-07-20T06:13:35.299Z,15.10
2018-07-20T06:16:03.872Z,15.57
2018-07-20T06:18:32.441Z,14.57
2018-07-20T06:21:00.992Z,12.97
2018-07-20T06:23:29.663Z,10.97
2018-07-20T06:25:58.217Z,14.47
2018-07-20T06:28:26.804Z,12.73
2018-07-20T06:30:55.412Z,14.30
2018-07-20T06:33:23.954Z,13.43
2018-07-20T06:35:52.536Z,13.30
2018-07-20T06:38:21.160Z,14.00
2018-07-20T06:40:50.000Z,12.90
2018-07-20T06:43:18.545Z,13.40
2018-07-20T06:45:47.323Z,13.23
2018-07-20T06:48:15.904Z,13.27
2018-07-20T06:50:44.905Z,15.17
2018-07-20T06:53:14.213Z,13.00
2018-07-20T06:55:42.784Z,14.70
2018-07-20T06:58:11.380Z,14.17
2018-07-20T07:00:39.997Z,14.07
2018-07-20T07:03:08.638Z,17.13
2018-07-20T07:05:37.451Z,13.70
2018-07-20T07:08:06.031Z,13.77
2018-07-20T07:10:34.843Z,16.40
2018-07-20T07:13:03.505Z,16.47
2018-07-20T07:15:32.095Z,15.43
2018-07-20T07:18:00.648Z,13.70
2018-07-20T07:20:29.285Z,13.77
2018-07-20T07:22:57.859Z,12.60
2018-07-20T07:25:27.337Z,14.17
2018-07-20T07:27:55.912Z,13.23
2018-07-20T07:30:24.710Z,13.57
2018-07-20T07:32:53.287Z,12.17
2018-07-20T07:35:21.819Z,12.27
2018-07-20T07:37:50.397Z,13.77
2018-07-20T07:40:18.979Z,12.80
2018-07-20T07:42:47.519Z,14.27
2018-07-20T07:45:16.093Z,15.23
2018-07-20T07:47:44.691Z,13.67
2018-07-20T07:50:13.287Z,13.57
2018-07-20T07:52:41.963Z,12.70
2018-07-20T07:55:11.109Z,12.87
2018-07-20T07:57:39.841Z,13.30
2018-07-20T08:00:08.412Z,13.07
2018-07-20T08:02:37.961Z,17.03
2018-07-20T08:05:06.562Z,16.13
2018-07-20T08:07:36.368Z,11.87
2018-07-20T08:10:05.428Z,11.90
2018-07-20T08:12:33.934Z,12.90
2018-07-20T08:15:02.564Z,13.17
2018-07-20T08:17:31.157Z,13.20
2018-07-20T08:19:59.735Z,11.47
2018-07-20T08:22:28.291Z,10.63
2018-07-20T08:24:56.843Z,11.10
2018-07-20T08:27:25.776Z,13.40
2018-07-20T08:29:54.323Z,10.70
2018-07-20T08:32:23.424Z,11.87
2018-07-20T08:34:51.973Z,10.03
2018-07-20T08:37:21.092Z,9.47
2018-07-20T08:39:49.716Z,11.27
2018-07-20T08:42:18.295Z,11.43
2018-07-20T08:44:46.964Z,10.83
2018-07-20T08:47:18.136Z,8.70
2018-07-20T08:49:46.790Z,11.67
2018-07-20T08:52:15.686Z,12.83
2018-07-20T08:54:44.359Z,9.10
2018-07-20T08:57:15.790Z,8.37
2018-07-20T08:59:44.368Z,9.30
2018-07-20T09:02:12.959Z,8.60
2018-07-20T09:04:41.555Z,9.53
2018-07-20T09:07:10.695Z,8.97
2018-07-20T09:09:39.344Z,7.33
2018-07-20T09:12:07.872Z,7.03
2018-07-20T09:14:36.431Z,8.70
2018-07-20T09:17:05.998Z,7.90
2018-07-20T09:19:34.893Z,9.23
2018-07-20T09:22:03.693Z,8.20
2018-07-20T09:24:32.555Z,9.10
2018-07-20T09:27:01.080Z,8.13
2018-07-20T09:29:29.756Z,8.70
2018-07-20T09:31:58.299Z,8.60
2018-07-20T09:34:26.975Z,8.90
2018-07-20T09:36:55.520Z,7.20
2018-07-20T09:39:24.427Z,9.93
2018-07-20T09:41:52.976Z,7.33
2018-07-20T09:44:21.778Z,9.67
2018-07-20T09:46:50.299Z,11.10
2018-07-20T09:49:19.170Z,8.30
2018-07-20T09:51:47.760Z,11.43
2018-07-20T09:54:16.343Z,6.60
2018-07-20T09:56:45.018Z,7.77
2018-07-20T09:59:13.868Z,6.30
2018-07-20T10:01:42.636Z,6.30
2018-07-20T10:04:11.265Z,7.37
2018-07-20T10:06:40.040Z,7.23
2018-07-20T10:09:13.170Z,8.13
2018-07-20T10:11:41.965Z,7.27
2018-07-20T10:14:10.536Z,8.10
2018-07-20T10:16:41.796Z,7.83
2018-07-20T10:19:10.572Z,9.03
2018-07-20T10:21:39.212Z,5.80
2018-07-20T10:24:07.833Z,9.10
2018-07-20T10:26:36.451Z,8.63
2018-07-20T10:29:05.044Z,7.43
2018-07-20T10:31:33.899Z,7.23
2018-07-20T10:34:02.761Z,7.07
2018-07-20T10:36:31.491Z,6.73
2018-07-20T10:39:00.214Z,6.23
2018-07-20T10:41:28.792Z,6.77
2018-07-20T10:43:57.363Z,6.33
2018-07-20T10:46:26.328Z,6.60
2018-07-20T10:48:54.924Z,7.10
2018-07-20T10:51:23.498Z,7.13
2018-07-20T10:53:52.358Z,9.87
2018-07-20T10:56:21.120Z,9.70
2018-07-20T10:58:49.708Z,7.00
2018-07-20T11:01:18.591Z,6.83
2018-07-20T11:03:47.390Z,7.77
2018-07-20T11:06:16.120Z,7.20
2018-07-20T11:08:44.794Z,7.23
2018-07-20T11:11:14.427Z,9.63
2018-07-20T11:13:43.067Z,6.83
2018-07-20T11:16:11.647Z,7.70
2018-07-20T11:18:40.188Z,8.50
2018-07-20T11:21:08.971Z,8.70
2018-07-20T11:23:37.567Z,7.33
2018-07-20T11:26:06.880Z,8.20
2018-07-20T11:28:35.468Z,6.57
2018-07-20T11:31:04.130Z,7.60
2018-07-20T11:33:32.989Z,8.23
2018-07-20T11:36:01.558Z,6.27
2018-07-20T11:38:30.106Z,10.23
2018-07-20T11:40:58.671Z,6.63
2018-07-20T11:43:27.709Z,11.37
2018-07-20T11:45:56.284Z,7.63
2018-07-20T11:48:25.306Z,7.47
2018-07-20T11:50:53.864Z,9.20
2018-07-20T11:53:22.702Z,8.40
2018-07-20T11:55:51.312Z,8.30
2018-07-20T11:58:19.885Z,7.30
2018-07-20T12:00:48.450Z,7.13
2018-07-20T12:03:17.161Z,8.43
2018-07-20T12:05:45.756Z,6.77
2018-07-20T12:08:14.494Z,9.70
2018-07-20T12:10:43.257Z,7.57
2018-07-20T12:13:15.648Z,7.50
2018-07-20T12:15:45.093Z,7.37
2018-07-20T12:18:13.703Z,6.77
2018-07-20T12:20:43.068Z,6.83
2018-07-20T12:23:13.330Z,8.07
2018-07-20T12:25:41.852Z,9.47
2018-07-20T12:28:10.504Z,8.70
2018-07-20T12:30:39.020Z,7.43
2018-07-20T12:33:07.948Z,9.50
2018-07-20T12:35:36.558Z,7.40
2018-07-20T12:38:05.232Z,8.20
2018-07-20T12:40:33.911Z,9.43
2018-07-20T12:43:02.469Z,8.67
2018-07-20T12:45:31.356Z,14.20
2018-07-20T12:48:00.028Z,7.50
2018-07-20T12:50:28.721Z,9.43
2018-07-20T12:52:57.277Z,9.27
2018-07-20T12:55:25.881Z,8.30
2018-07-20T12:57:54.412Z,8.53
2018-07-20T13:00:23.063Z,11.00
2018-07-20T13:02:51.720Z,13.80
2018-07-20T13:05:20.273Z,8.77
2018-07-20T13:07:49.020Z,14.10
2018-07-20T13:10:17.595Z,8.20
2018-07-20T13:12:46.157Z,10.60
2018-07-20T13:15:18.662Z,8.93
2018-07-20T13:17:47.966Z,12.70
2018-07-20T13:20:16.557Z,8.37
2018-07-20T13:22:45.145Z,10.00
2018-07-20T13:25:16.137Z,8.20
2018-07-20T13:27:44.695Z,9.00
2018-07-20T13:30:13.255Z,9.07
2018-07-20T13:32:41.828Z,8.53
2018-07-20T13:35:10.776Z,9.30
2018-07-20T13:37:39.787Z,8.90
2018-07-20T13:40:08.752Z,8.70
2018-07-20T13:42:37.320Z,9.07
2018-07-20T13:45:07.073Z,9.20
2018-07-20T13:47:36.545Z,9.30
2018-07-20T13:50:05.927Z,8.90
2018-07-20T13:52:35.153Z,9.20
2018-07-20T13:55:04.092Z,8.07
2018-07-20T13:57:32.840Z,8.50
2018-07-20T14:00:01.406Z,8.53
2018-07-20T14:02:30.240Z,9.80
2018-07-20T14:04:58.874Z,10.47
2018-07-20T14:07:27.563Z,9.53
2018-07-20T14:09:57.432Z,9.27
2018-07-20T14:12:26.088Z,8.90
2018-07-20T14:14:55.762Z,8.27
2018-07-20T14:17:24.400Z,9.40
2018-07-20T14:19:53.097Z,8.43
2018-07-20T14:22:21.676Z,10.20
2018-07-20T14:24:50.388Z,10.67
2018-07-20T14:27:19.156Z,9.83
2018-07-20T14:29:47.736Z,8.77
2018-07-20T14:32:16.324Z,10.10
2018-07-20T14:34:44.892Z,13.60
2018-07-20T14:37:15.060Z,9.00
2018-07-20T14:39:44.518Z,8.50
2018-07-20T14:42:13.260Z,10.03
2018-07-20T14:44:41.918Z,8.30
2018-07-20T14:47:10.587Z,8.67
2018-07-20T14:49:39.445Z,9.63
2018-07-20T14:52:08.026Z,9.87
2018-07-20T14:54:36.592Z,11.97
2018-07-20T14:57:05.156Z,9.60
2018-07-20T14:59:33.786Z,8.93
2018-07-20T15:02:02.385Z,9.87
2018-07-20T15:04:30.959Z,9.70
2018-07-20T15:06:59.560Z,8.47
2018-07-20T15:09:28.297Z,8.43
2018-07-20T15:11:57.055Z,8.70
2018-07-20T15:14:25.725Z,8.50
2018-07-20T15:16:54.358Z,10.83
2018-07-20T15:19:23.020Z,8.47
2018-07-20T15:21:51.821Z,8.73
2018-07-20T15:24:20.380Z,8.40
2018-07-20T15:26:48.925Z,10.13
2018-07-20T15:29:17.531Z,8.70
2018-07-20T15:31:46.090Z,17.63
2018-07-20T15:34:14.687Z,8.50
2018-07-20T15:36:43.352Z,9.53
2018-07-20T15:39:12.728Z,8.50
2018-07-20T15:41:41.505Z,9.03
2018-07-20T15:44:10.059Z,8.00
2018-07-20T15:46:38.787Z,10.27
2018-07-20T15:49:07.278Z,8.40
2018-07-20T15:53:35.054Z,7.90
2018-07-20T15:54:04.513Z,7.87
2018-07-20T15:56:33.118Z,8.10
2018-07-20T15:59:01.791Z,7.13
2018-07-20T16:01:30.387Z,7.67
2018-07-20T16:03:58.959Z,7.27
2018-07-20T16:06:28.399Z,6.83
2018-07-20T16:08:57.773Z,7.33
2018-07-20T16:11:26.327Z,7.20
2018-07-20T16:13:54.938Z,6.53
2018-07-20T16:16:23.736Z,6.90
2018-07-20T16:18:52.351Z,6.90
2018-07-20T16:21:20.957Z,7.33
2018-07-20T16:23:49.539Z,6.30
2018-07-20T16:26:18.256Z,8.10
2018-07-20T16:28:46.965Z,6.87
2018-07-20T16:31:15.474Z,8.30
2018-07-20T16:33:44.067Z,7.10
2018-07-20T16:36:12.664Z,7.60
2018-07-20T16:38:41.228Z,7.20
2018-07-20T16:41:10.061Z,6.50
2018-07-20T16:43:38.966Z,7.83
2018-07-20T16:46:07.575Z,9.63
2018-07-20T16:48:36.116Z,7.27
2018-07-20T16:51:04.776Z,6.57
2018-07-20T16:53:33.331Z,7.00
2018-07-20T16:56:01.879Z,9.60
2018-07-20T16:58:30.437Z,7.83
2018-07-20T17:00:59.127Z,7.33
2018-07-20T17:03:27.766Z,7.50
2018-07-20T17:05:56.403Z,7.67
2018-07-20T17:08:24.992Z,7.93
2018-07-20T17:10:54.140Z,6.17
2018-07-20T17:13:23.861Z,5.27
2018-07-20T17:15:52.431Z,6.93
2018-07-20T17:18:21.032Z,6.00
2018-07-20T17:20:49.676Z,6.17
2018-07-20T17:23:18.400Z,19.50
2018-07-20T17:25:46.996Z,7.87
2018-07-20T17:28:15.621Z,7.80
2018-07-20T17:30:44.128Z,8.20
2018-07-20T17:33:13.431Z,8.00
2018-07-20T17:35:42.032Z,7.53
2018-07-20T17:38:10.639Z,8.13
2018-07-20T17:40:39.285Z,8.43
2018-07-20T17:43:07.847Z,7.80
2018-07-20T17:45:36.452Z,8.40
2018-07-20T17:48:05.073Z,7.53
2018-07-20T17:50:33.636Z,8.20
2018-07-20T17:53:02.579Z,7.77
2018-07-20T17:55:31.236Z,7.57
2018-07-20T17:57:59.820Z,8.93
2018-07-20T18:00:28.571Z,7.93
2018-07-20T18:02:57.521Z,14.77
2018-07-20T18:05:26.945Z,19.57
2018-07-20T18:07:55.508Z,17.60
2018-07-20T18:10:24.115Z,9.80
2018-07-20T18:12:53.602Z,11.30
2018-07-20T18:15:22.220Z,7.87
2018-07-20T18:17:51.030Z,8.90
2018-07-20T18:20:19.569Z,8.33
2018-07-20T18:22:48.191Z,9.47
2018-07-20T18:25:17.035Z,10.70
2018-07-20T18:27:45.705Z,11.30
2018-07-20T18:30:14.316Z,8.50
2018-07-20T18:32:42.924Z,11.40
2018-07-20T18:35:11.851Z,9.93
2018-07-20T18:37:40.407Z,7.73
2018-07-20T18:40:08.984Z,12.63
2018-07-20T18:42:37.520Z,11.40
2018-07-20T18:45:07.054Z,7.93
2018-07-20T18:47:35.688Z,7.90
2018-07-20T18:50:05.217Z,7.43
2018-07-20T18:52:33.801Z,14.50
2018-07-20T18:55:02.392Z,9.20
2018-07-20T18:57:31.109Z,9.63
2018-07-20T18:59:59.717Z,10.47
2018-07-20T19:02:28.290Z,8.17
2018-07-20T19:04:56.920Z,12.57
2018-07-20T19:07:25.551Z,10.07
2018-07-20T19:09:54.128Z,9.53
2018-07-20T19:12:23.793Z,10.23
2018-07-20T19:14:52.374Z,7.83
2018-07-20T19:17:20.947Z,8.90
2018-07-20T19:19:49.721Z,7.93
2018-07-20T19:22:18.272Z,8.47
2018-07-20T19:24:46.839Z,9.83
2018-07-20T19:27:15.376Z,7.97
2018-07-20T19:29:43.912Z,8.10
2018-07-20T19:32:12.872Z,9.17
2018-07-20T19:34:43.770Z,10.20
2018-07-20T19:37:12.399Z,17.73
2018-07-20T19:39:41.054Z,15.23
2018-07-20T19:42:09.644Z,13.60
2018-07-20T19:44:38.236Z,13.70
2018-07-20T19:47:08.351Z,9.40
2018-07-20T19:49:36.917Z,11.07
2018-07-20T19:52:05.542Z,9.73
2018-07-20T19:54:34.122Z,9.53
2018-07-20T19:57:02.800Z,8.23
2018-07-20T19:59:31.379Z,9.70
2018-07-20T20:01:59.934Z,8.73
2018-07-20T20:04:28.511Z,8.40
2018-07-20T20:06:57.986Z,12.13
2018-07-20T20:09:26.840Z,10.40
2018-07-20T20:11:55.384Z,9.53
2018-07-20T20:14:24.559Z,14.87
2018-07-20T20:16:53.231Z,11.20
2018-07-20T20:19:22.510Z,9.73
2018-07-20T20:21:51.084Z,10.13
2018-07-20T20:24:19.661Z,12.90
2018-07-20T20:26:48.223Z,19.03
2018-07-20T20:29:16.784Z,11.67
2018-07-20T20:31:45.347Z,9.97
2018-07-20T20:34:14.095Z,11.60
2018-07-20T20:36:42.712Z,10.77
2018-07-20T20:39:12.883Z,11.83
2018-07-20T20:41:41.856Z,9.67
2018-07-20T20:44:11.172Z,10.63
2018-07-20T20:46:40.436Z,11.53
2018-07-20T20:49:09.023Z,10.17
2018-07-20T20:51:37.730Z,11.67
2018-07-20T20:54:06.969Z,11.40
2018-07-20T20:56:35.531Z,10.83
2018-07-20T20:59:05.190Z,11.10
2018-07-20T21:01:34.091Z,8.50
2018-07-20T21:04:02.803Z,10.10
2018-07-20T21:06:31.366Z,8.80
2018-07-20T21:08:59.932Z,12.23
2018-07-20T21:11:29.805Z,11.33
2018-07-20T21:13:58.577Z,9.20
2018-07-20T21:16:28.130Z,12.20
2018-07-20T21:18:56.682Z,13.00
2018-07-20T21:21:26.599Z,18.53
2018-07-20T21:23:55.204Z,14.83
2018-07-20T21:26:23.773Z,12.17
2018-07-20T21:28:52.406Z,11.00
2018-07-20T21:31:20.972Z,9.80
2018-07-20T21:33:49.554Z,8.10
2018-07-20T21:36:18.445Z,8.70
2018-07-20T21:38:47.100Z,9.73
2018-07-20T21:41:17.680Z,9.07
2018-07-20T21:43:47.139Z,10.17
2018-07-20T21:46:15.748Z,15.90
2018-07-20T21:48:44.350Z,14.63
2018-07-20T21:51:14.140Z,12.20
2018-07-20T21:53:42.811Z,10.53
2018-07-20T21:56:11.402Z,8.03
2018-07-20T21:58:40.228Z,10.10
2018-07-20T22:01:08.990Z,9.77
2018-07-20T22:03:37.563Z,9.60
2018-07-20T22:06:06.965Z,10.57
2018-07-20T22:08:36.500Z,11.00
2018-07-20T22:11:05.261Z,10.33
2018-07-20T22:13:34.342Z,9.30
2018-07-20T22:16:02.908Z,12.60
2018-07-20T22:18:31.469Z,10.43
2018-07-20T22:21:00.025Z,10.23
2018-07-20T22:23:28.670Z,10.00
2018-07-20T22:25:57.252Z,10.50
2018-07-20T22:28:25.846Z,9.83
2018-07-20T22:30:54.413Z,11.03
2018-07-20T22:33:22.984Z,14.37
2018-07-20T22:35:51.660Z,12.07
2018-07-20T22:38:20.376Z,11.33
2018-07-20T22:40:49.359Z,9.87
2018-07-20T22:43:17.897Z,14.87
2018-07-20T22:45:46.426Z,11.57
2018-07-20T22:48:15.047Z,10.73
2018-07-20T22:50:44.147Z,9.50
2018-07-20T22:53:13.244Z,10.60
2018-07-20T22:55:41.932Z,10.23
2018-07-20T22:58:10.508Z,9.60
2018-07-20T23:00:39.057Z,9.93
2018-07-20T23:03:07.708Z,8.57
2018-07-20T23:05:36.484Z,10.13
2018-07-20T23:08:05.069Z,9.53
2018-07-20T23:10:33.640Z,9.37
2018-07-20T23:13:02.197Z,13.23
2018-07-20T23:15:32.340Z,8.87
2018-07-20T23:18:01.099Z,9.70
2018-07-20T23:20:30.025Z,9.70
2018-07-20T23:22:58.602Z,8.60
2018-07-20T23:25:28.050Z,10.50
2018-07-20T23:27:56.757Z,8.60
2018-07-20T23:30:25.552Z,12.10
2018-07-20T23:32:54.363Z,8.77
2018-07-20T23:35:23.000Z,12.33
2018-07-20T23:37:51.564Z,12.03
2018-07-20T23:40:20.147Z,10.30
2018-07-20T23:42:48.771Z,9.13
2018-07-20T23:45:17.346Z,9.00
2018-07-20T23:47:46.038Z,11.40
2018-07-20T23:50:14.608Z,10.50
2018-07-20T23:52:43.289Z,8.70
2018-07-20T23:55:12.252Z,12.97
2018-07-20T23:57:40.812Z,13.67
